createdAt,value
2023-06-16T00:00:13.930Z,36.11
2023-06-16T00:02:49.035Z,36.79
2023-06-16T00:05:17.948Z,36.59
2023-06-16T00:07:47.691Z,36.13
2023-06-16T00:10:17.080Z,36.09
2023-06-16T00:12:46.263Z,35.64
2023-06-16T00:15:15.420Z,35.51
2023-06-16T00:17:48.869Z,34.63
2023-06-16T00:20:22.297Z,33.62
2023-06-16T00:22:51.292Z,33.36
2023-06-16T00:25:30.563Z,32.16
2023-06-16T00:27:59.373Z,32.14
2023-06-16T00:30:28.390Z,32.25
2023-06-16T00:32:57.329Z,32.10
2023-06-16T00:35:26.464Z,31.92
2023-06-16T00:37:55.259Z,32.37
2023-06-16T00:40:24.484Z,32.58
2023-06-16T00:42:55.849Z,32.86
2023-06-16T00:45:27.547Z,33.19
2023-06-16T00:47:57.099Z,33.50
2023-06-16T00:50:26.881Z,33.45
2023-06-16T00:52:57.301Z,34.01
2023-06-16T00:55:26.938Z,34.26
2023-06-16T00:57:56.388Z,34.27
2023-06-16T01:00:26.053Z,34.71
2023-06-16T01:02:55.126Z,34.65
2023-06-16T01:05:26.779Z,34.78
2023-06-16T01:08:33.539Z,34.91
2023-06-16T01:11:37.374Z,35.29
2023-06-16T01:14:38.735Z,35.55
2023-06-16T01:17:10.498Z,36.37
2023-06-16T01:19:52.190Z,35.72
2023-06-16T01:22:50.048Z,36.28
2023-06-16T01:25:24.784Z,36.63
2023-06-16T01:27:56.139Z,37.29
2023-06-16T01:30:30.568Z,36.76
2023-06-16T01:33:02.206Z,36.77
2023-06-16T01:35:36.329Z,36.12
2023-06-16T01:38:06.102Z,36.08
2023-06-16T01:40:37.314Z,35.29
2023-06-16T01:43:08.277Z,34.59
2023-06-16T01:45:38.593Z,34.54
2023-06-16T01:48:09.230Z,34.95
2023-06-16T01:50:38.497Z,34.94
2023-06-16T01:53:09.979Z,35.17
2023-06-16T01:55:38.782Z,34.89
2023-06-16T01:58:08.908Z,34.60
2023-06-16T02:00:58.204Z,34.60
2023-06-16T02:03:36.070Z,34.73
2023-06-16T02:06:17.828Z,35.11
2023-06-16T02:08:50.815Z,34.87
2023-06-16T02:11:20.883Z,34.77
2023-06-16T02:13:51.344Z,34.72
2023-06-16T02:16:22.866Z,34.66
2023-06-16T02:18:56.008Z,34.66
2023-06-16T02:21:25.177Z,34.78
2023-06-16T02:23:54.441Z,35.00
2023-06-16T02:26:23.921Z,35.21
2023-06-16T02:28:55.271Z,35.02
2023-06-16T02:31:24.485Z,36.02
2023-06-16T02:33:57.957Z,36.90
2023-06-16T02:36:27.048Z,37.38
2023-06-16T02:38:55.851Z,38.59
2023-06-16T02:41:25.090Z,39.49
2023-06-16T02:43:56.647Z,40.14
2023-06-16T02:46:25.903Z,39.83
2023-06-16T02:48:54.778Z,39.60
2023-06-16T02:51:23.824Z,39.70
2023-06-16T02:53:54.080Z,39.51
2023-06-16T02:56:26.305Z,39.67
2023-06-16T02:59:00.657Z,40.81
2023-06-16T03:01:31.369Z,40.69
2023-06-16T03:04:02.172Z,41.00
2023-06-16T03:06:36.747Z,41.34
2023-06-16T03:09:08.247Z,41.13
2023-06-16T03:11:37.619Z,41.28
2023-06-16T03:14:06.709Z,42.17
2023-06-16T03:16:43.505Z,42.10
2023-06-16T03:19:13.846Z,42.51
2023-06-16T03:21:42.717Z,42.76
2023-06-16T03:24:19.342Z,43.57
2023-06-16T03:26:49.026Z,42.85
2023-06-16T03:29:17.911Z,43.15
2023-06-16T03:31:47.400Z,43.65
2023-06-16T03:34:24.744Z,44.32
2023-06-16T03:36:54.403Z,44.91
2023-06-16T03:39:23.516Z,45.32
2023-06-16T03:41:52.577Z,45.79
2023-06-16T03:44:21.643Z,46.45
2023-06-16T03:46:51.571Z,46.83
2023-06-16T03:49:23.947Z,47.63
2023-06-16T03:51:52.946Z,47.45
2023-06-16T03:54:22.507Z,47.95
2023-06-16T03:56:51.505Z,48.42
2023-06-16T03:59:21.218Z,48.71
2023-06-16T04:01:53.843Z,49.67
2023-06-16T04:04:22.866Z,49.97
2023-06-16T04:06:54.330Z,50.46
2023-06-16T04:09:24.450Z,50.42
2023-06-16T04:11:56.500Z,50.42
2023-06-16T04:14:28.119Z,50.46
2023-06-16T04:16:57.558Z,49.97
2023-06-16T04:19:28.436Z,50.87
2023-06-16T04:22:00.379Z,51.50
2023-06-16T04:24:29.308Z,51.26
2023-06-16T04:27:00.527Z,51.56
2023-06-16T04:29:29.750Z,52.31
2023-06-16T04:32:01.632Z,52.40
2023-06-16T04:34:33.760Z,52.58
2023-06-16T04:37:02.736Z,52.55
2023-06-16T04:39:31.756Z,53.19
2023-06-16T04:42:03.767Z,53.46
2023-06-16T04:44:33.405Z,53.64
2023-06-16T04:47:02.764Z,53.75
2023-06-16T04:49:31.836Z,53.81
2023-06-16T04:52:00.819Z,53.57
2023-06-16T04:54:31.695Z,54.51
2023-06-16T04:57:00.645Z,54.52
2023-06-16T04:59:34.923Z,54.85
2023-06-16T05:02:04.025Z,54.65
2023-06-16T05:04:33.314Z,54.82
2023-06-16T05:07:02.317Z,55.17
2023-06-16T05:10:52.947Z,55.26
2023-06-16T05:13:21.957Z,55.50
2023-06-16T05:16:30.985Z,55.60
2023-06-16T05:19:00.248Z,55.92
2023-06-16T05:21:29.265Z,55.92
2023-06-16T05:24:01.098Z,55.87
2023-06-16T05:26:30.118Z,56.09
2023-06-16T05:29:02.025Z,56.30
2023-06-16T05:31:31.600Z,56.69
2023-06-16T05:34:00.675Z,56.87
2023-06-16T05:36:39.971Z,56.97
2023-06-16T05:39:17.108Z,57.18
2023-06-16T05:41:46.325Z,57.33
2023-06-16T05:44:15.298Z,57.34
2023-06-16T05:46:44.414Z,57.44
2023-06-16T05:49:13.436Z,57.40
2023-06-16T05:51:45.109Z,57.67
2023-06-16T05:54:14.179Z,57.86
2023-06-16T05:56:45.877Z,58.03
2023-06-16T05:59:15.068Z,58.38
2023-06-16T06:01:43.973Z,58.88
2023-06-16T06:04:32.308Z,59.06
2023-06-16T06:07:03.142Z,59.16
2023-06-16T06:09:32.856Z,59.39
2023-06-16T06:12:03.704Z,59.56
2023-06-16T06:14:32.810Z,59.76
2023-06-16T06:17:01.794Z,59.74
2023-06-16T06:19:30.950Z,59.87
2023-06-16T06:22:02.250Z,60.04
2023-06-16T06:24:31.351Z,59.67
2023-06-16T06:27:03.696Z,59.95
2023-06-16T06:29:35.629Z,60.16
2023-06-16T06:32:05.306Z,60.34
2023-06-16T06:34:34.298Z,60.45
2023-06-16T06:37:03.413Z,60.91
2023-06-16T06:39:32.942Z,60.69
2023-06-16T06:42:02.074Z,60.91
2023-06-16T06:44:31.244Z,60.88
2023-06-16T06:47:00.638Z,61.05
2023-06-16T06:49:29.622Z,61.29
2023-06-16T06:52:00.729Z,61.68
2023-06-16T06:54:32.455Z,61.69
2023-06-16T06:57:01.734Z,61.68
2023-06-16T06:59:30.756Z,61.78
2023-06-16T07:01:59.955Z,61.78
2023-06-16T07:04:29.291Z,62.15
2023-06-16T07:07:01.105Z,62.14
2023-06-16T07:09:31.136Z,62.09
2023-06-16T07:12:00.793Z,62.46
2023-06-16T07:14:31.669Z,62.58
2023-06-16T07:17:04.902Z,62.34
2023-06-16T07:19:33.930Z,62.64
2023-06-16T07:22:04.760Z,62.65
2023-06-16T07:24:34.245Z,62.60
2023-06-16T07:27:04.132Z,62.78
2023-06-16T07:29:33.242Z,62.91
2023-06-16T07:32:03.191Z,62.68
2023-06-16T07:34:36.660Z,62.75
2023-06-16T07:37:09.988Z,63.00
2023-06-16T07:39:38.956Z,63.08
2023-06-16T07:42:10.214Z,63.42
2023-06-16T07:44:39.628Z,63.36
2023-06-16T07:47:11.868Z,63.38
2023-06-16T07:49:40.927Z,63.38
2023-06-16T07:52:17.844Z,63.64
2023-06-16T07:54:48.132Z,63.56
2023-06-16T07:57:17.414Z,63.21
2023-06-16T07:59:46.547Z,62.84
2023-06-16T08:02:15.585Z,62.91
2023-06-16T08:04:44.972Z,62.85
2023-06-16T08:07:13.973Z,63.26
2023-06-16T08:09:42.970Z,63.28
2023-06-16T08:12:13.050Z,63.37
2023-06-16T08:14:44.213Z,63.29
2023-06-16T08:17:13.154Z,63.57
2023-06-16T08:19:41.926Z,63.51
2023-06-16T08:22:10.901Z,63.60
2023-06-16T08:24:40.040Z,63.82
2023-06-16T08:27:10.864Z,63.83
2023-06-16T08:29:42.352Z,63.98
2023-06-16T08:32:11.541Z,64.32
2023-06-16T08:34:40.456Z,64.56
2023-06-16T08:37:28.356Z,64.42
2023-06-16T08:39:59.413Z,64.51
2023-06-16T08:42:28.876Z,64.94
2023-06-16T08:44:59.685Z,65.15
2023-06-16T08:47:29.237Z,65.10
2023-06-16T08:49:59.477Z,65.21
2023-06-16T08:52:43.206Z,65.50
2023-06-16T08:55:17.005Z,65.88
2023-06-16T08:57:54.128Z,65.75
2023-06-16T09:00:24.457Z,65.81
2023-06-16T09:02:58.625Z,65.92
2023-06-16T09:05:28.711Z,65.97
2023-06-16T09:07:58.465Z,66.15
2023-06-16T09:10:27.821Z,66.36
2023-06-16T09:13:03.296Z,66.70
2023-06-16T09:15:36.070Z,66.99
2023-06-16T09:18:09.332Z,67.15
2023-06-16T09:20:42.106Z,67.25
2023-06-16T09:23:12.981Z,67.01
2023-06-16T09:25:41.883Z,67.00
2023-06-16T09:28:15.522Z,67.26
2023-06-16T09:30:45.184Z,67.55
2023-06-16T09:33:15.913Z,67.69
2023-06-16T09:35:50.322Z,67.79
2023-06-16T09:38:19.875Z,67.91
2023-06-16T09:40:49.014Z,67.89
2023-06-16T09:43:18.282Z,67.87
2023-06-16T09:45:57.101Z,68.07
2023-06-16T09:48:29.411Z,68.27
2023-06-16T09:51:02.076Z,68.54
2023-06-16T09:53:31.999Z,68.48
2023-06-16T09:56:02.391Z,68.50
2023-06-16T09:58:41.863Z,68.56
2023-06-16T10:01:18.192Z,68.70
2023-06-16T10:03:52.991Z,68.82
2023-06-16T10:06:23.699Z,69.15
2023-06-16T10:08:56.780Z,69.33
2023-06-16T10:11:26.956Z,69.25
2023-06-16T10:14:02.752Z,69.42
2023-06-16T10:16:33.800Z,69.44
2023-06-16T10:19:07.627Z,69.38
2023-06-16T10:21:37.207Z,69.57
2023-06-16T10:24:07.195Z,69.74
2023-06-16T10:26:39.804Z,69.78
2023-06-16T10:29:09.784Z,69.65
2023-06-16T10:31:41.769Z,69.77
2023-06-16T10:34:22.252Z,69.95
2023-06-16T10:36:56.799Z,70.00
2023-06-16T10:39:26.057Z,69.96
2023-06-16T10:42:01.093Z,70.01
2023-06-16T10:44:31.995Z,70.05
2023-06-16T10:47:16.259Z,70.20
2023-06-16T10:50:04.840Z,70.37
2023-06-16T10:52:36.310Z,70.38
2023-06-16T10:55:37.861Z,70.36
2023-06-16T10:58:18.919Z,70.51
2023-06-16T11:01:06.357Z,70.44
2023-06-16T11:03:53.369Z,70.62
2023-06-16T11:06:26.787Z,70.76
2023-06-16T11:09:02.837Z,70.71
2023-06-16T11:11:36.976Z,70.80
2023-06-16T11:14:06.076Z,70.83
2023-06-16T11:16:37.541Z,70.91
2023-06-16T11:19:07.164Z,71.01
2023-06-16T11:21:36.670Z,71.02
2023-06-16T11:24:14.036Z,70.81
2023-06-16T11:26:43.748Z,70.90
2023-06-16T11:29:13.084Z,71.07
2023-06-16T11:31:49.552Z,70.92
2023-06-16T11:34:19.226Z,70.88
2023-06-16T11:36:51.442Z,70.82
2023-06-16T11:39:20.565Z,70.69
2023-06-16T11:42:01.754Z,70.86
2023-06-16T11:44:31.345Z,71.00
2023-06-16T11:47:00.925Z,71.13
2023-06-16T11:49:33.834Z,71.39
2023-06-16T11:52:05.458Z,71.41
2023-06-16T11:54:36.033Z,71.45
2023-06-16T11:57:05.643Z,71.50
2023-06-16T11:59:34.974Z,71.56
2023-06-16T12:02:10.494Z,71.63
2023-06-16T12:04:39.988Z,71.44
2023-06-16T12:07:09.457Z,71.37
2023-06-16T12:09:40.225Z,71.31
2023-06-16T12:12:12.441Z,71.28
2023-06-16T12:14:43.024Z,71.24
2023-06-16T12:17:12.365Z,71.10
2023-06-16T12:19:43.110Z,70.92
2023-06-16T12:22:12.740Z,70.76
2023-06-16T12:24:44.834Z,70.85
2023-06-16T12:27:27.019Z,70.84
2023-06-16T12:30:02.643Z,70.75
2023-06-16T12:32:37.072Z,70.74
2023-06-16T12:35:07.734Z,70.66
2023-06-16T12:37:38.270Z,70.43
2023-06-16T12:40:17.489Z,70.51
2023-06-16T12:42:46.890Z,70.46
2023-06-16T12:45:20.927Z,70.36
2023-06-16T12:47:50.102Z,70.36
2023-06-16T12:50:19.390Z,70.45
2023-06-16T12:52:49.577Z,70.75
2023-06-16T12:55:18.553Z,70.72
2023-06-16T12:57:49.332Z,70.69
2023-06-16T13:00:19.219Z,70.79
2023-06-16T13:02:50.260Z,70.84
2023-06-16T13:05:19.318Z,70.89
2023-06-16T13:07:50.040Z,70.93
2023-06-16T13:10:19.324Z,70.94
2023-06-16T13:12:52.180Z,70.79
2023-06-16T13:15:21.566Z,70.72
2023-06-16T13:17:50.500Z,70.92
2023-06-16T13:20:19.630Z,71.17
2023-06-16T13:22:51.702Z,71.02
2023-06-16T13:25:20.730Z,71.10
2023-06-16T13:27:49.735Z,71.16
2023-06-16T13:30:19.120Z,71.30
2023-06-16T13:32:48.412Z,71.22
2023-06-16T13:35:17.924Z,71.07
2023-06-16T13:37:49.523Z,71.25
2023-06-16T13:40:19.850Z,71.04
2023-06-16T13:46:21.588Z,71.22
2023-06-16T13:48:52.829Z,71.04
2023-06-16T13:51:21.667Z,71.08
2023-06-16T13:53:51.013Z,71.24
2023-06-16T13:56:20.687Z,70.98
2023-06-16T13:58:49.550Z,70.94
2023-06-16T14:01:18.526Z,70.94
2023-06-16T14:03:47.511Z,70.63
2023-06-16T14:06:16.481Z,70.29
2023-06-16T14:08:48.747Z,70.35
2023-06-16T14:11:20.548Z,70.54
2023-06-16T14:13:49.536Z,70.36
2023-06-16T14:16:18.443Z,70.16
2023-06-16T14:18:52.367Z,70.07
2023-06-16T14:21:23.515Z,69.47
2023-06-16T14:23:53.724Z,69.08
2023-06-16T14:26:41.378Z,69.15
2023-06-16T14:29:10.372Z,68.82
2023-06-16T14:31:41.908Z,68.70
2023-06-16T14:34:10.977Z,68.68
2023-06-16T14:36:42.934Z,68.31
2023-06-16T14:39:11.732Z,68.33
2023-06-16T14:41:41.988Z,68.18
2023-06-16T14:44:11.071Z,67.87
2023-06-16T14:46:40.787Z,67.81
2023-06-16T14:49:10.143Z,67.51
2023-06-16T14:51:39.199Z,67.54
2023-06-16T14:54:08.407Z,67.58
2023-06-16T14:56:39.871Z,67.33
2023-06-16T14:59:09.433Z,66.99
2023-06-16T15:01:38.548Z,66.86
2023-06-16T15:04:07.617Z,66.63
2023-06-16T15:06:37.288Z,66.20
2023-06-16T15:09:06.706Z,66.00
2023-06-16T15:11:35.678Z,65.72
2023-06-16T15:14:04.661Z,64.90
2023-06-16T15:16:33.548Z,64.14
2023-06-16T15:19:04.736Z,63.77
2023-06-16T15:21:33.757Z,63.54
2023-06-16T15:24:02.599Z,63.07
2023-06-16T15:26:35.392Z,62.96
2023-06-16T15:29:04.321Z,63.13
2023-06-16T15:31:33.163Z,63.15
2023-06-16T15:34:02.260Z,62.41
2023-06-16T15:36:31.036Z,62.14
2023-06-16T15:39:00.088Z,61.12
2023-06-16T15:41:30.731Z,59.70
2023-06-16T15:44:00.192Z,59.31
2023-06-16T15:46:29.288Z,58.81
2023-06-16T15:49:01.336Z,58.75
2023-06-16T15:51:30.542Z,58.48
2023-06-16T15:53:59.819Z,58.66
2023-06-16T15:56:28.883Z,57.66
2023-06-16T15:58:57.894Z,56.83
2023-06-16T16:01:26.826Z,56.51
2023-06-16T16:03:55.838Z,55.63
2023-06-16T16:06:25.149Z,55.64
2023-06-16T16:08:54.084Z,55.54
2023-06-16T16:11:22.995Z,55.32
2023-06-16T16:13:52.076Z,53.92
2023-06-16T16:16:24.395Z,53.43
2023-06-16T16:18:55.820Z,52.59
2023-06-16T16:21:24.864Z,52.40
2023-06-16T16:23:54.364Z,52.29
2023-06-16T16:26:23.598Z,51.51
2023-06-16T16:28:53.213Z,50.95
2023-06-16T16:31:22.204Z,50.28
2023-06-16T16:33:51.430Z,49.45
2023-06-16T16:36:21.108Z,49.15
2023-06-16T16:38:49.973Z,49.22
2023-06-16T16:41:18.879Z,49.33
2023-06-16T16:43:49.433Z,48.06
2023-06-16T16:46:18.725Z,47.32
2023-06-16T16:48:51.644Z,46.73
2023-06-16T16:51:21.215Z,46.62
2023-06-16T16:53:51.209Z,46.24
2023-06-16T16:56:20.368Z,45.68
2023-06-16T16:58:58.449Z,45.81
2023-06-16T17:01:27.287Z,45.75
2023-06-16T17:03:59.027Z,44.56
2023-06-16T17:06:28.142Z,43.82
2023-06-16T17:08:57.165Z,43.27
2023-06-16T17:11:26.156Z,43.19
2023-06-16T17:13:55.370Z,43.48
2023-06-16T17:16:27.369Z,43.38
2023-06-16T17:18:56.508Z,43.06
2023-06-16T17:21:25.504Z,42.91
2023-06-16T17:23:54.587Z,42.97
2023-06-16T17:26:23.441Z,43.03
2023-06-16T17:28:55.025Z,42.14
2023-06-16T17:31:25.644Z,42.32
2023-06-16T17:33:56.819Z,42.31
2023-06-16T17:36:25.759Z,42.07
2023-06-16T17:38:55.096Z,41.65
2023-06-16T17:41:24.084Z,41.64
2023-06-16T17:43:54.041Z,40.89
2023-06-16T17:46:23.002Z,41.30
2023-06-16T17:48:51.905Z,41.18
2023-06-16T17:51:21.014Z,40.98
2023-06-16T17:53:50.186Z,40.84
2023-06-16T17:56:23.777Z,41.08
2023-06-16T17:58:52.954Z,41.28
2023-06-16T18:01:23.542Z,41.29
2023-06-16T18:03:52.385Z,40.56
2023-06-16T18:06:21.573Z,40.50
2023-06-16T18:08:50.783Z,40.12
2023-06-16T18:11:19.735Z,39.61
2023-06-16T18:13:48.563Z,40.07
2023-06-16T18:16:17.612Z,39.57
2023-06-16T18:18:46.537Z,39.36
2023-06-16T18:21:17.268Z,39.46
2023-06-16T18:23:46.303Z,38.79
2023-06-16T18:26:15.240Z,38.95
2023-06-16T18:28:44.452Z,38.71
2023-06-16T18:31:14.166Z,38.74
2023-06-16T18:33:43.003Z,38.38
2023-06-16T18:36:12.377Z,37.58
2023-06-16T18:38:48.858Z,37.54
2023-06-16T18:41:18.205Z,37.71
2023-06-16T18:43:47.010Z,38.16
2023-06-16T18:46:16.453Z,37.78
2023-06-16T18:48:45.409Z,37.45
2023-06-16T18:51:14.424Z,37.19
2023-06-16T18:53:43.331Z,37.39
2023-06-16T18:56:12.529Z,37.50
2023-06-16T18:58:41.500Z,38.31
2023-06-16T19:01:10.840Z,37.71
2023-06-16T19:03:40.065Z,37.35
2023-06-16T19:06:10.746Z,37.20
2023-06-16T19:08:48.680Z,37.48
2023-06-16T19:11:18.820Z,37.12
2023-06-16T19:13:53.893Z,37.31
2023-06-16T19:16:22.758Z,37.09
2023-06-16T19:18:52.012Z,36.98
2023-06-16T19:21:20.958Z,37.01
2023-06-16T19:23:49.942Z,37.36
2023-06-16T19:26:18.989Z,36.94
2023-06-16T19:28:54.179Z,36.80
2023-06-16T19:31:25.168Z,36.83
2023-06-16T19:33:55.970Z,36.59
2023-06-16T19:36:25.093Z,36.68
2023-06-16T19:38:54.743Z,36.54
2023-06-16T19:41:29.523Z,36.80
2023-06-16T19:43:59.820Z,36.45
2023-06-16T19:46:30.483Z,36.57
2023-06-16T19:49:00.174Z,36.72
2023-06-16T19:51:30.044Z,36.83
2023-06-16T19:53:58.855Z,36.52
2023-06-16T19:56:27.887Z,36.89
2023-06-16T19:58:56.933Z,37.06
2023-06-16T20:01:25.773Z,37.13
2023-06-16T20:03:54.796Z,37.16
2023-06-16T20:06:23.795Z,37.31
2023-06-16T20:08:52.726Z,37.20
2023-06-16T20:11:22.168Z,37.50
2023-06-16T20:13:53.800Z,37.45
2023-06-16T20:16:22.681Z,37.32
2023-06-16T20:18:54.705Z,37.71
2023-06-16T20:21:23.611Z,38.24
2023-06-16T20:23:52.571Z,38.29
2023-06-16T20:26:21.616Z,38.06
2023-06-16T20:28:50.573Z,37.80
2023-06-16T20:31:19.626Z,38.00
2023-06-16T20:33:48.748Z,38.03
2023-06-16T20:36:17.653Z,38.11
2023-06-16T20:38:46.499Z,38.41
2023-06-16T20:41:20.242Z,38.64
2023-06-16T20:43:49.154Z,39.04
2023-06-16T20:46:18.141Z,39.05
2023-06-16T20:48:47.272Z,39.15
2023-06-16T20:51:16.181Z,39.06
2023-06-16T20:53:48.497Z,39.38
2023-06-16T20:56:20.004Z,39.05
2023-06-16T20:58:49.371Z,38.74
2023-06-16T21:01:21.036Z,38.29
2023-06-16T21:03:54.473Z,37.97
2023-06-16T21:06:24.218Z,37.98
2023-06-16T21:09:03.349Z,38.15
2023-06-16T21:11:33.378Z,38.00
2023-06-16T21:14:05.451Z,37.79
2023-06-16T21:16:36.902Z,37.84
2023-06-16T21:19:06.158Z,38.08
2023-06-16T21:21:35.130Z,37.63
2023-06-16T21:24:04.185Z,37.86
2023-06-16T21:26:33.127Z,37.86
2023-06-16T21:29:01.986Z,38.01
2023-06-16T21:31:31.136Z,38.11
2023-06-16T21:34:00.182Z,38.02
2023-06-16T21:36:29.033Z,38.13
2023-06-16T21:39:00.323Z,37.22
2023-06-16T21:41:29.315Z,37.09
2023-06-16T21:43:59.605Z,36.78
2023-06-16T21:46:28.592Z,36.92
2023-06-16T21:48:58.824Z,37.00
2023-06-16T21:51:28.217Z,37.40
2023-06-16T21:53:57.254Z,37.33
2023-06-16T21:56:26.450Z,37.33
2023-06-16T21:58:55.253Z,37.28
2023-06-16T22:01:24.100Z,37.67
2023-06-16T22:03:53.073Z,38.00
2023-06-16T22:06:22.117Z,36.87
2023-06-16T22:08:51.066Z,36.88
2023-06-16T22:11:20.067Z,36.75
2023-06-16T22:13:49.152Z,36.64
2023-06-16T22:16:18.936Z,36.44
2023-06-16T22:18:49.098Z,36.55
2023-06-16T22:21:18.261Z,37.20
2023-06-16T22:23:48.228Z,37.57
2023-06-16T22:26:21.608Z,37.05
2023-06-16T22:28:50.435Z,36.94
2023-06-16T22:31:19.994Z,36.99
2023-06-16T22:33:51.711Z,37.33
2023-06-16T22:36:20.709Z,37.22
2023-06-16T22:38:49.656Z,37.18
2023-06-16T22:41:18.638Z,37.90
2023-06-16T22:43:47.436Z,38.23
2023-06-16T22:46:17.383Z,38.59
2023-06-16T22:48:46.965Z,37.48
2023-06-16T22:51:20.506Z,36.79
2023-06-16T22:53:50.321Z,36.29
2023-06-16T22:56:25.294Z,35.53
2023-06-16T22:58:54.750Z,34.89
2023-06-16T23:01:26.138Z,35.02
2023-06-16T23:03:58.031Z,34.35
2023-06-16T23:06:29.654Z,33.89
2023-06-16T23:08:58.848Z,33.11
2023-06-16T23:11:27.984Z,32.49
2023-06-16T23:13:56.988Z,31.67
2023-06-16T23:16:31.978Z,30.81
2023-06-16T23:19:00.988Z,30.60
2023-06-16T23:21:30.265Z,30.79
2023-06-16T23:23:59.631Z,29.88
2023-06-16T23:26:30.380Z,29.83
2023-06-16T23:29:02.476Z,29.60
2023-06-16T23:31:31.700Z,29.36
2023-06-16T23:34:00.688Z,29.93
2023-06-16T23:36:30.499Z,29.23
2023-06-16T23:38:59.383Z,29.11
2023-06-16T23:41:30.061Z,29.45
2023-06-16T23:43:59.112Z,29.81
2023-06-16T23:46:28.265Z,30.08
2023-06-16T23:48:57.543Z,29.96
2023-06-16T23:51:26.577Z,29.72
2023-06-16T23:53:55.469Z,30.34
2023-06-16T23:56:24.872Z,30.17
2023-06-16T23:58:53.732Z,30.78
